Latest Coastal Weather Observations for Hopetoun North

IDW60701

Issued at 9:03 am WST Thursday 25 August 2016 (issued every 10 minutes, with the page automatically refreshed every 10 minutes)

About coastal observations | Map of coastal stations | Coastal observations for WA | Marine services | Other Formats
Station Details ID: 009961 Name: HOPETOUN NORTH Lat: -33.93 Lon: 120.13 Height: 26.0 m
Data from the previous 72 hours. | See also: Recent months at Hopetoun North
Date/Time
WST
Temp
°C
Wind Pressure Rain since
9am
mm
Weather Cloud Vis
km
Sea
Height
m
Swell
Dir  Spd
kts
Gust
kts
hPa Trend Height
m
Period
s
Dir
25/09:00am 11.7 NNE 10 15 1027.6 - 0.4 - - - - - - -
25/08:30am 10.1 NNE 7 10 1027.5 - 0.4 - - - - - - -
25/08:00am 8.3 NNE 3 7 1027.4 - 0.4 - - - - - - -
25/07:30am 6.0 N 3 5 1027.0 - 0.4 - - - - - - -
25/07:00am 5.5 NNE 4 5 1026.7 - 0.4 - - - - - - -
25/06:30am 5.6 N 3 5 1026.5 - 0.4 - - - - - - -
25/06:00am 5.6 N 4 5 1026.3 - 0.4 - - - - - - -
25/05:30am 5.4 NNE 3 5 1026.1 - 0.4 - - - - - - -
25/05:00am 5.7 NNE 3 4 1025.9 - 0.4 - - - - - - -
25/04:30am 6.9 NNE 4 4 1025.7 - 0.4 - - - - - - -
25/04:00am 8.2 NNE 3 5 1025.7 - 0.4 - - - - - - -
25/03:30am 7.7 N 4 7 1025.8 - 0.4 - - - - - - -
25/03:00am 6.4 NE 4 5 1026.0 - 0.4 - - - - - - -
25/02:30am 6.5 NNE 3 4 1026.3 - 0.4 - - - - - - -
25/02:00am 6.9 NNE 4 4 1026.3 - 0.4 - - - - - - -
25/01:30am 6.8 NE 3 3 1026.4 - 0.4 - - - - - - -
25/01:00am 7.5 NE 4 5 1026.5 - 0.4 - - - - - - -
25/12:30am 8.3 NE 4 5 1026.5 - 0.4 - - - - - - -
25/12:00am 9.6 ENE 3 4 1026.5 - 0.4 - - - - - - -
 
Date/Time
WST
Temp
°C
Wind Pressure Rain since
9am
mm
Weather Cloud Vis
km
Sea
Height
m
Swell
Dir  Spd
kts
Gust
kts
hPa Trend Height
m
Period
s
Dir
24/11:30pm 11.0 E 4 6 1026.6 - 0.4 - - - - - - -
24/11:00pm 10.8 E 4 5 1026.7 - 0.4 - - - - - - -
24/10:30pm 10.6 SE 7 11 1026.7 - 0.4 - - - - - - -
24/10:00pm 11.1 SE 8 12 1026.6 - 0.4 - - - - - - -
24/09:30pm 11.4 SE 8 13 1026.5 - 0.4 - - - - - - -
24/09:00pm 11.7 SE 9 12 1026.5 - 0.4 - - - - - - -
24/08:30pm 12.0 SE 9 14 1026.6 - 0.4 - - - - - - -
24/08:00pm 11.9 SSE 9 12 1026.4 - 0.4 - - - - - - -
24/07:30pm 11.7 SSE 8 13 1026.3 - 0.4 - - - - - - -
24/07:00pm 11.1 SE 7 10 1026.2 - 0.4 - - - - - - -
24/06:30pm 11.4 S 9 14 1025.9 - 0.4 - - - - - - -
24/06:00pm 11.0 S 9 13 1025.7 - 0.4 - - - - - - -
24/05:30pm 11.2 S 11 15 1025.9 - 0.4 - - - - - - -
24/05:00pm 11.0 S 10 14 1025.7 - 0.4 - - - - - - -
24/04:30pm 11.9 SSW 8 16 1025.5 - 0.2 - - - - - - -
24/04:00pm 13.2 SSW 13 16 1025.3 - 0.0 - - - - - - -
24/03:30pm 11.9 S 8 14 1025.3 - 0.0 - - - - - - -
24/03:00pm 14.5 SSW 9 13 1025.0 - 0.0 - - - - - - -
24/02:30pm 13.6 SSW 9 13 1024.9 - 0.0 - - - - - - -
24/02:00pm 13.8 S 10 14 1025.0 - 0.0 - - - - - - -
24/01:30pm 14.6 S 11 14 1025.0 - 0.0 - - - - - - -
24/01:00pm 14.2 S 10 14 1025.1 - 0.0 - - - - - - -
24/12:30pm 14.0 S 9 13 1025.4 - 0.0 - - - - - - -
24/12:00pm 14.2 S 8 12 1025.7 - 0.0 - - - - - - -
24/11:30am 13.7 S 10 13 1026.0 - 0.0 - - - - - - -
24/11:00am 13.3 S 9 13 1026.2 - 0.0 - - - - - - -
24/10:30am 12.6 S 8 11 1026.4 - 0.0 - - - - - - -
24/10:00am 12.5 SSW 7 11 1026.5 - 0.0 - - - - - - -
24/09:30am 12.4 S 8 11 1026.3 - 0.0 - - - - - - -
24/09:00am 12.2 S 9 13 1026.1 - 0.4 - - - - - - -
24/08:30am 11.8 S 8 13 1025.8 - 0.4 - - - - - - -
24/08:00am 11.7 S 9 13 1025.7 - 0.4 - - - - - - -
24/07:30am 11.5 S 7 11 1025.6 - 0.4 - - - - - - -
24/07:00am 10.4 SSW 5 7 1025.6 - 0.4 - - - - - - -
24/06:30am 10.1 SSW 7 9 1025.3 - 0.4 - - - - - - -
24/06:00am 10.4 SSW 7 13 1025.1 - 0.4 - - - - - - -
24/05:30am 10.8 SSW 9 12 1024.9 - 0.4 - - - - - - -
24/05:00am 8.5 SSE 4 7 1024.9 - 0.4 - - - - - - -
24/04:30am 6.9 NNE 3 3 1024.8 - 0.4 - - - - - - -
24/04:00am 7.3 NE 4 6 1024.7 - 0.4 - - - - - - -
24/03:30am 10.9 S 6 9 1024.5 - 0.4 - - - - - - -
24/03:00am 8.9 SSW 3 6 1024.4 - 0.4 - - - - - - -
24/02:30am 7.8 NNW 3 5 1024.5 - 0.4 - - - - - - -
24/02:00am 7.3 N 3 4 1024.7 - 0.4 - - - - - - -
24/01:30am 8.2 NW 5 6 1024.8 - 0.4 - - - - - - -
24/01:00am 7.7 NW 5 7 1024.9 - 0.4 - - - - - - -
24/12:30am 9.0 NNE 2 3 1024.6 - 0.4 - - - - - - -
24/12:00am 9.7 E 3 6 1024.7 - 0.4 - - - - - - -
 
Date/Time
WST
Temp
°C
Wind Pressure Rain since
9am
mm
Weather Cloud Vis
km
Sea
Height
m
Swell
Dir  Spd
kts
Gust
kts
hPa Trend Height
m
Period
s
Dir
23/11:30pm 10.3 ESE 4 5 1024.8 - 0.4 - - - - - - -
23/11:00pm 10.2 SE 4 7 1024.9 - 0.4 - - - - - - -
23/10:30pm 9.4 SE 5 7 1025.0 - 0.4 - - - - - - -
23/10:00pm 9.9 SSE 6 8 1025.1 - 0.4 - - - - - - -
23/09:30pm 10.1 SE 6 8 1025.2 - 0.4 - - - - - - -
23/09:00pm 10.4 S 7 9 1025.1 - 0.4 - - - - - - -
23/08:30pm 10.4 S 7 11 1025.0 - 0.4 - - - - - - -
23/08:00pm 10.2 S 7 11 1024.8 - 0.4 - - - - - - -
23/07:30pm 10.7 S 8 11 1024.5 - 0.4 - - - - - - -
23/07:00pm 10.7 S 8 12 1024.2 - 0.4 - - - - - - -
23/06:30pm 11.2 S 10 14 1024.0 - 0.4 - - - - - - -
23/06:00pm 11.1 SSE 9 15 1023.8 - 0.4 - - - - - - -
23/05:30pm 10.9 S 9 13 1023.6 - 0.4 - - - - - - -
23/05:00pm 11.2 SSE 10 16 1023.3 - 0.4 - - - - - - -
23/04:30pm 11.8 SSE 11 15 1023.0 - 0.4 - - - - - - -
23/04:00pm 12.5 SSE 12 17 1022.9 - 0.4 - - - - - - -
23/03:30pm 13.2 S 10 16 1022.7 - 0.4 - - - - - - -
23/03:00pm 13.0 S 10 15 1022.6 - 0.4 - - - - - - -
23/02:30pm 12.9 SSE 11 16 1022.5 - 0.4 - - - - - - -
23/02:00pm 12.3 S 14 21 1022.6 - 0.4 - - - - - - -
23/01:30pm 11.0 S 8 14 1022.5 - 0.4 - - - - - - -
23/01:00pm 10.5 SSE 8 13 1022.7 - 0.0 - - - - - - -
23/12:30pm 13.6 S 13 19 1022.8 - 0.0 - - - - - - -
23/12:00pm 13.8 S 11 17 1023.1 - 0.0 - - - - - - -
23/11:30am 13.5 S 12 17 1023.3 - 0.0 - - - - - - -
23/11:00am 13.5 S 11 16 1023.4 - 0.0 - - - - - - -
23/10:30am 12.4 S 14 19 1023.6 - 0.0 - - - - - - -
23/10:00am 12.9 S 12 17 1023.3 - 0.0 - - - - - - -
23/09:30am 12.7 S 12 17 1023.3 - 0.0 - - - - - - -
23/09:00am 12.2 S 12 17 1023.1 - 0.4 - - - - - - -
23/08:30am 11.6 SSE 14 21 1022.9 - 0.4 - - - - - - -
23/08:00am 12.0 S 15 21 1022.4 - 0.4 - - - - - - -
23/07:30am 11.2 S 13 20 1022.0 - 0.4 - - - - - - -
23/07:00am 10.9 S 11 17 1021.8 - 0.4 - - - - - - -
23/06:30am 10.6 S 16 23 1021.8 - 0.4 - - - - - - -
23/06:00am 10.6 S 14 21 1021.5 - 0.4 - - - - - - -
23/05:30am 10.6 S 17 24 1021.3 - 0.4 - - - - - - -
23/05:00am 11.1 S 13 18 1021.1 - 0.4 - - - - - - -
23/04:30am 11.0 S 12 16 1020.8 - 0.4 - - - - - - -
23/04:00am 11.1 S 13 18 1020.6 - 0.4 - - - - - - -
23/03:30am 10.4 S 13 17 1020.5 - 0.4 - - - - - - -
23/03:00am 10.3 S 13 18 1020.5 - 0.4 Recent precip. - - - - - -
23/02:30am 9.9 S 14 21 1020.6 - 0.4 - - - - - - -
23/02:00am 10.5 S 12 17 1020.6 - 0.2 - - - - - - -
23/01:30am 11.2 S 13 17 1020.6 - 0.2 - - - - - - -
23/01:00am 10.9 SSW 15 21 1020.8 - 0.2 - - - - - - -
23/12:30am 11.2 S 12 17 1020.5 - 0.2 - - - - - - -
23/12:00am 11.6 SSW 14 19 1020.5 - 0.2 - - - - - - -
 
Date/Time
WST
Temp
°C
Wind Pressure Rain since
9am
mm
Weather Cloud Vis
km
Sea
Height
m
Swell
Dir  Spd
kts
Gust
kts
hPa Trend Height
m
Period
s
Dir
22/11:30pm 11.4 S 15 21 1020.6 - 0.2 - - - - - - -
22/11:00pm 11.4 S 16 23 1020.5 - 0.2 - - - - - - -
22/10:30pm 11.4 S 15 20 1020.4 - 0.2 - - - - - - -
22/10:00pm 11.5 S 15 21 1020.6 - 0.2 - - - - - - -
22/09:30pm 11.4 SSW 15 21 1020.5 - 0.2 - - - - - - -
22/09:00pm 10.9 SW 15 21 1020.4 - 0.2 - - - - - - -
22/08:30pm 11.7 S 14 21 1020.2 - 0.2 - - - - - - -
22/08:00pm 11.7 S 16 21 1020.0 - 0.2 - - - - - - -
22/07:30pm 11.6 S 16 23 1019.8 - 0.2 - - - - - - -
22/07:00pm 11.8 S 16 21 1019.6 - 0.2 - - - - - - -
22/06:30pm 11.8 S 16 22 1019.3 - 0.2 - - - - - - -
22/06:00pm 11.8 S 17 23 1018.9 - 0.2 - - - - - - -
22/05:30pm 12.0 S 19 25 1018.5 - 0.2 - - - - - - -
22/05:00pm 12.1 SSW 17 25 1018.3 - 0.2 - - - - - - -
22/04:40pm 12.2 SSW 17 27 1018.0 - 0.2 - - - - - - -
22/04:30pm 12.4 S 18 26 1017.8 - 0.2 - - - - - - -
22/04:00pm 12.5 SSW 17 25 1017.6 - 0.2 - - - - - - -
22/03:30pm 13.1 SSW 20 27 1017.2 - 0.2 - - - - - - -
22/03:02pm 13.3 SSW 20 30 1016.8 - 0.2 - - - - - - -
22/03:00pm 13.6 SSW 21 30 1016.7 - 0.2 - - - - - - -
22/02:40pm 13.2 SSW 20 30 1016.5 - 0.2 - - - - - - -
22/02:30pm 13.2 SSW 21 29 1016.4 - 0.2 - - - - - - -
22/02:05pm 12.5 SSW 21 31 1016.3 - 0.2 - - - - - - -
22/02:00pm 12.9 SSW 20 26 1016.3 - 0.2 - - - - - - -
22/01:30pm 12.7 SSW 20 27 1016.3 - 0.2 - - - - - - -
22/01:00pm 14.1 SSW 21 29 1016.1 - 0.0 - - - - - - -
22/12:32pm 14.2 SSW 20 31 1016.3 - 0.0 - - - - - - -
22/12:30pm 14.0 SSW 21 31 1016.3 - 0.0 - - - - - - -
22/12:00pm 14.1 SSW 20 26 1016.3 - 0.0 - - - - - - -
22/11:31am 13.5 SSW 21 31 1016.4 - 0.0 - - - - - - -
22/11:30am 13.1 SSW 21 30 1016.4 - 0.0 - - - - - - -
22/11:01am 13.1 SSW 20 30 1016.5 - 0.0 - - - - - - -
22/11:00am 12.9 SSW 21 30 1016.5 - 0.0 - - - - - - -
22/10:36am 13.9 SSW 20 31 1016.3 - 0.0 - - - - - - -
22/10:30am 13.8 SSW 21 29 1016.3 - 0.0 - - - - - - -
22/10:02am 12.5 SSW 21 31 1015.9 - 0.0 - - - - - - -
22/10:00am 12.4 SSW 19 28 1015.9 - 0.0 - - - - - - -
22/09:33am 13.4 SSW 21 31 1015.7 - 0.0 - - - - - - -
22/09:30am 13.2 SSW 22 31 1015.6 - 0.0 - - - - - - -
22/09:14am 12.5 SSW 21 33 1015.5 - 0.0 - - - - - - -

Other Formats:

Comma delimited format used in spreadsheet applications
http://www.bom.gov.au/fwo/IDW60701/IDW60701.95635.axf

JavaScript Object Notation format (JSON) in row-major order
http://www.bom.gov.au/fwo/IDW60701/IDW60701.95635.json